A- A+ FrançaisEnglishEspañol中国

最近的 HLLT TripoliLFBT Tarbes-Lourdes-PyrénéesLFLG Grenoble-Le-Versoud DRZD DirkouSLSR Santa Rosa de YacumaDAAG Alger Houuari Boumediene

飞行员的航空天气,使用METAR(气象机场报告)进行的飞行准备和TAF(终端机场预报:针对以下情况的短期天气预报)航空)。 以及其他资源,例如VAC(目视进近图)和NOTAM(通知飞行员)以进行预试飞行.

METAR, TAF, VAC, NOTAM Mora Siljan机场 (Suède) / OACI ESKM/ IATA MXX

它位于附近 Mora (Suède). 可提供5天天气预报 Dalarnas Län 位于 4.7 km.

机场的高度为 Mora Siljan机场的

193 m = 633 ft

附近的机场 Mora Siljan机场的

跑道 Mora Siljan机场的

METAR Mora Siljan机场的 - ESKM

ESKM 230020Z AUTO 20003KT 160V250 9999 BKN023/// M00/M03 Q1033

Mora Siljan机场METAR解码 (Suède)

ESKM机场发行的METAR日期2020年03月23日至00:20 GMT. 这是一个自动生成的METAR, 警告:此METAR已过期, 已于 16 天 11 小时 17 分钟.

可见度为大于 10 km = 大于6.2 sm.

温度为0°C = 32 °F 露点为-3°C = 27 °F 。 这相当于80%的相对湿度。.

QNH是1033 hPa = 30.5 inHg

的风3 kt = 6 km/h, 风向为200°.

云:距云2300 ft = 700 m.

TAF Mora Siljan机场的 - ESKM

没有TAF

Mora Siljan视觉方法图 - ESKM

所提供的视觉方法图(VAC视觉方法图)不保证其及时性。 在将其用于飞行准备或在飞行期间使用之前,飞行员是唯一负责验证其有效性的人员。.

VAC de ESKM

Mora Siljan机场的NOTAM

提供的NOTAM不能保证其时事性。 在将其用于飞行准备或在飞行期间使用之前,飞行员是唯一负责验证其有效性的人员。

没有通知

数据源